Time;durP1;ratioP1;P1;durP2;ratioP2;P2;SDS_P1;SDS_P2;PMS_P1;PMS_P2;Temp;Humidity;BMP_temperature;BMP_pressure;BME280_temperature;BME280_humidity;BME280_pressure;Samples;Min_cycle;Max_cycle;Signal;HPM_P1;HPM_P2
2021/04/28 00:01:31;;;;;;;7.60;4.70;;;;;;;6.12;51.56;99376.94;5073999;28;20059;-72
2021/04/28 00:03:58;;;;;;;7.25;4.53;;;;;;;6.09;52.01;99375.59;5073978;28;20374;-72
2021/04/28 00:06:26;;;;;;;7.03;4.47;;;;;;;6.13;51.91;99370.25;5073583;28;20052;-72
2021/04/28 00:08:53;;;;;;;9.13;4.85;;;;;;;6.17;51.47;99362.97;5073305;28;20056;-73
2021/04/28 00:11:19;;;;;;;8.35;4.90;;;;;;;6.19;51.16;99359.91;5072732;28;20078;-73
2021/04/28 00:13:46;;;;;;;7.35;4.72;;;;;;;6.16;51.44;99355.81;5073216;28;20460;-73
2021/04/28 00:16:13;;;;;;;6.88;4.70;;;;;;;6.17;51.37;99357.44;5072503;28;20048;-73
2021/04/28 00:18:40;;;;;;;9.10;5.38;;;;;;;6.23;51.24;99355.38;5073037;28;20401;-73
2021/04/28 00:21:08;;;;;;;9.95;5.50;;;;;;;6.21;51.44;99354.88;5072952;28;20052;-73
2021/04/28 00:23:36;;;;;;;9.45;5.03;;;;;;;6.20;52.46;99353.25;5070097;28;20493;-72
2021/04/28 00:26:03;;;;;;;8.25;5.10;;;;;;;6.19;52.22;99349.66;5052929;28;20045;-72
2021/04/28 00:28:30;;;;;;;6.97;4.80;;;;;;;6.17;52.55;99345.56;5055470;28;20052;-72
2021/04/28 00:30:57;;;;;;;8.18;5.10;;;;;;;6.13;53.03;99341.78;5072819;28;20068;-72
2021/04/28 00:33:24;;;;;;;10.13;5.22;;;;;;;6.11;53.26;99339.38;5072570;28;20052;-73
2021/04/28 00:35:51;;;;;;;7.43;5.00;;;;;;;6.06;52.85;99343.03;5073219;28;20049;-73
2021/04/28 00:38:17;;;;;;;8.32;5.15;;;;;;;6.02;53.09;99336.50;5070116;28;20044;-73
2021/04/28 00:40:45;;;;;;;6.78;4.95;;;;;;;5.95;53.42;99335.31;5052387;28;20061;-73
2021/04/28 00:43:12;;;;;;;8.80;5.10;;;;;;;5.93;53.17;99330.06;5052566;28;20053;-72
2021/04/28 00:45:39;;;;;;;9.43;5.55;;;;;;;5.86;54.13;99326.94;5052566;28;20049;-73
2021/04/28 00:48:09;;;;;;;7.75;5.03;;;;;;;5.81;54.36;99324.25;5053032;28;20060;-73
2021/04/28 00:50:37;;;;;;;;;;;;;;;5.76;54.55;99329.91;5053262;28;20064;-72
2021/04/28 00:53:05;;;;;;;8.55;4.97;;;;;;;5.67;54.04;99325.13;5053182;28;20411;-72
2021/04/28 00:55:33;;;;;;;8.82;5.40;;;;;;;5.64;54.82;99320.19;5055167;28;20362;-72
2021/04/28 00:58:04;;;;;;;6.65;5.28;;;;;;;5.61;54.92;99323.59;5070112;28;20059;-73
2021/04/28 01:00:31;;;;;;;7.97;5.38;;;;;;;5.59;55.16;99317.56;5076132;28;20478;-72
2021/04/28 01:02:58;;;;;;;7.45;5.80;;;;;;;5.51;55.26;99320.25;5075779;28;20400;-73
2021/04/28 01:05:26;;;;;;;7.60;4.95;;;;;;;5.48;55.57;99305.91;5075980;28;20060;-73
2021/04/28 01:07:53;;;;;;;6.93;5.10;;;;;;;5.41;55.87;99319.31;5072443;28;20049;-73
2021/04/28 01:10:25;;;;;;;8.13;5.18;;;;;;;5.39;55.98;99309.72;5055621;28;20052;-73
2021/04/28 01:12:52;;;;;;;8.90;5.90;;;;;;;5.32;56.33;99317.59;5056300;28;20064;-72
2021/04/28 01:15:23;;;;;;;7.80;5.38;;;;;;;5.31;56.51;99304.91;5056811;28;20098;-73
2021/04/28 01:17:50;;;;;;;7.20;5.50;;;;;;;5.28;56.32;99315.44;5056164;28;20049;-73
2021/04/28 01:20:19;;;;;;;9.07;5.70;;;;;;;5.26;56.25;99303.88;5056097;28;20143;-73
2021/04/28 01:22:49;;;;;;;9.02;6.05;;;;;;;5.23;56.16;99309.22;5055857;28;20053;-73
2021/04/28 01:25:19;;;;;;;7.97;6.53;;;;;;;5.16;55.98;99304.09;5072939;28;20058;-72
2021/04/28 01:27:47;;;;;;;;;;;;;;;5.09;56.50;99307.28;5076598;28;20048;-72
2021/04/28 01:30:15;;;;;;;8.93;5.97;;;;;;;5.04;56.81;99303.78;5075629;28;19920;-72
2021/04/28 01:32:47;;;;;;;10.00;6.15;;;;;;;5.01;56.64;99304.41;5075570;28;20056;-72
2021/04/28 01:35:15;;;;;;;8.75;6.05;;;;;;;5.00;56.62;99302.78;5075481;28;20045;-72
2021/04/28 01:37:44;;;;;;;10.10;6.20;;;;;;;4.97;56.65;99306.16;5076083;28;20056;-72
2021/04/28 01:40:14;;;;;;;8.25;6.07;;;;;;;4.93;56.66;99302.34;5056473;28;20421;-72
2021/04/28 01:42:42;;;;;;;9.20;6.18;;;;;;;4.90;56.97;99305.75;5055687;28;20053;-72
2021/04/28 01:45:11;;;;;;;8.55;5.90;;;;;;;4.85;57.61;99306.63;5055465;28;20049;-72
2021/04/28 01:47:39;;;;;;;8.13;6.40;;;;;;;4.83;57.88;99306.13;5055056;28;20068;-72
2021/04/28 01:50:07;;;;;;;9.60;7.18;;;;;;;4.78;58.22;99292.44;5055094;28;20060;-73
2021/04/28 01:52:37;;;;;;;9.38;6.78;;;;;;;4.75;58.55;99298.56;5055134;28;20052;-72
2021/04/28 01:55:05;;;;;;;9.02;6.45;;;;;;;4.71;58.78;99303.06;5056197;28;20498;-72
2021/04/28 01:57:35;;;;;;;9.98;6.50;;;;;;;4.70;58.69;99301.41;5055380;28;20052;-72
2021/04/28 02:00:04;;;;;;;8.90;6.68;;;;;;;4.63;58.46;99302.63;5055178;28;20059;-72
2021/04/28 02:02:34;;;;;;;10.23;6.82;;;;;;;4.65;58.51;99294.06;5054786;28;20048;-72
2021/04/28 02:05:01;;;;;;;9.27;6.47;;;;;;;4.65;57.99;99288.53;5055003;28;20056;-72
2021/04/28 02:07:28;;;;;;;9.93;7.00;;;;;;;4.62;59.02;99286.38;5054238;28;20064;-72
2021/04/28 02:09:55;;;;;;;8.90;6.82;;;;;;;4.61;58.56;99293.03;5074902;28;20052;-72
2021/04/28 02:12:22;;;;;;;10.40;6.80;;;;;;;4.58;58.05;99288.13;5074955;28;20053;-72
2021/04/28 02:14:51;;;;;;;9.85;6.57;;;;;;;4.59;58.61;99289.75;5075775;28;20044;-72
2021/04/28 02:17:18;;;;;;;9.00;7.10;;;;;;;4.52;58.73;99286.59;5076025;28;20067;-72
2021/04/28 02:19:46;;;;;;;11.95;6.72;;;;;;;4.53;58.74;99290.97;5074591;28;20475;-72
2021/04/28 02:22:13;;;;;;;10.88;7.20;;;;;;;4.51;58.58;99287.69;5074665;28;20055;-72
2021/04/28 02:24:41;;;;;;;11.45;7.60;;;;;;;4.50;58.25;99286.88;5055649;28;20053;-72
2021/04/28 02:27:08;;;;;;;8.43;6.55;;;;;;;4.50;58.57;99284.13;5054480;28;20490;-72
2021/04/28 02:29:35;;;;;;;8.60;6.75;;;;;;;4.47;58.22;99274.53;5057577;28;20060;-72
2021/04/28 02:32:04;;;;;;;10.13;6.80;;;;;;;4.46;58.60;99281.16;5055159;28;20053;-72
2021/04/28 02:34:30;;;;;;;8.45;6.85;;;;;;;4.44;58.41;99277.88;5054522;28;20053;-72
2021/04/28 02:36:59;;;;;;;10.23;6.75;;;;;;;4.42;58.58;99274.59;5054867;28;20383;-73
2021/04/28 02:39:30;;;;;;;9.25;7.22;;;;;;;4.40;58.99;99273.28;5054823;28;20685;-73
2021/04/28 02:41:57;;;;;;;10.70;6.85;;;;;;;4.35;59.49;99276.94;5054500;28;20056;-73
2021/04/28 02:44:26;;;;;;;10.60;7.18;;;;;;;4.30;59.07;99268.75;5054882;28;20509;-72
2021/04/28 02:46:55;;;;;;;10.43;7.67;;;;;;;4.29;59.43;99264.38;5054992;28;20057;-73
2021/04/28 02:49:26;;;;;;;11.85;7.35;;;;;;;4.29;59.63;99269.06;5054075;28;20045;-73
2021/04/28 02:51:53;;;;;;;16.60;7.78;;;;;;;4.27;59.49;99266.63;5054437;28;20057;-73
2021/04/28 02:54:21;;;;;;;11.05;8.05;;;;;;;4.23;59.38;99262.81;5054104;28;20061;-72
2021/04/28 02:56:50;;;;;;;11.55;7.15;;;;;;;4.19;59.86;99267.31;5053950;28;20048;-72
2021/04/28 02:59:17;;;;;;;11.18;7.53;;;;;;;4.17;59.88;99270.34;5053689;28;20053;-73
2021/04/28 03:01:45;;;;;;;9.80;7.18;;;;;;;4.17;59.79;99266.78;5054001;28;20057;-73
2021/04/28 03:04:15;;;;;;;11.05;7.07;;;;;;;4.15;59.68;99258.00;5053898;28;20049;-72
2021/04/28 03:06:43;;;;;;;10.07;7.05;;;;;;;4.15;59.52;99263.50;5053590;28;20049;-72
2021/04/28 03:09:10;;;;;;;9.63;7.28;;;;;;;4.10;59.81;99269.13;5053785;28;20060;-73
2021/04/28 03:11:39;;;;;;;9.55;7.90;;;;;;;4.10;59.97;99264.44;5054062;28;20406;-73
2021/04/28 03:14:06;;;;;;;10.02;7.72;;;;;;;4.07;59.50;99267.75;5053825;28;20057;-73
2021/04/28 03:16:33;;;;;;;9.77;7.70;;;;;;;4.03;60.30;99270.31;5054512;28;20060;-73
2021/04/28 03:19:01;;;;;;;14.27;8.45;;;;;;;4.02;60.01;99271.44;5052637;28;20053;-73
2021/04/28 03:21:33;;;;;;;12.27;8.18;;;;;;;4.02;60.13;99265.09;5053445;28;20064;-72
2021/04/28 03:24:01;;;;;;;9.52;8.13;;;;;;;3.99;60.50;99265.69;5054414;28;20045;-73
2021/04/28 03:26:28;;;;;;;10.52;8.00;;;;;;;3.98;60.35;99264.88;5053571;28;20059;-73
2021/04/28 03:28:55;;;;;;;11.35;8.23;;;;;;;3.95;60.36;99261.91;5059461;28;20044;-73
2021/04/28 03:31:22;;;;;;;10.30;7.95;;;;;;;3.93;60.84;99264.97;5073743;28;20052;-73
2021/04/28 03:33:48;;;;;;;12.13;9.07;;;;;;;3.92;60.31;99271.59;5073801;28;20512;-72
2021/04/28 03:36:15;;;;;;;11.80;8.45;;;;;;;3.90;60.19;99262.81;5073360;28;20508;-73
2021/04/28 03:38:42;;;;;;;9.30;7.32;;;;;;;3.88;61.32;99262.28;5067705;28;20056;-73
2021/04/28 03:41:10;;;;;;;12.40;8.13;;;;;;;3.90;60.85;99262.81;5053231;28;20497;-73
2021/04/28 03:43:37;;;;;;;10.00;7.68;;;;;;;3.88;60.88;99265.03;5053170;28;20053;-73
2021/04/28 03:46:04;;;;;;;11.68;7.80;;;;;;;3.85;61.22;99260.97;5053659;28;20371;-73
2021/04/28 03:48:30;;;;;;;11.93;8.23;;;;;;;3.82;60.97;99267.06;5053574;28;20053;-73
2021/04/28 03:50:57;;;;;;;13.27;8.18;;;;;;;3.81;61.18;99279.19;5053332;28;20052;-73
2021/04/28 03:53:24;;;;;;;9.80;7.60;;;;;;;3.80;61.14;99266.56;5053174;28;20379;-73
2021/04/28 03:55:51;;;;;;;11.85;8.45;;;;;;;3.79;60.93;99269.59;5053148;28;20060;-73
2021/04/28 03:58:21;;;;;;;11.73;8.00;;;;;;;3.77;61.02;99267.13;5053175;28;20053;-73
2021/04/28 04:00:48;;;;;;;13.05;8.65;;;;;;;3.76;61.60;99264.69;5052666;28;20053;-73
2021/04/28 04:03:15;;;;;;;12.05;8.85;;;;;;;3.75;61.06;99271.31;5052880;28;20060;-73
2021/04/28 04:05:42;;;;;;;12.38;8.32;;;;;;;3.75;61.67;99272.13;5053353;28;20071;-73
2021/04/28 04:08:09;;;;;;;11.85;8.27;;;;;;;3.74;61.51;99269.66;5052726;28;20053;-73
2021/04/28 04:10:36;;;;;;;12.35;8.65;;;;;;;3.74;62.02;99276.00;5052916;28;20072;-73
2021/04/28 04:13:02;;;;;;;14.15;8.20;;;;;;;3.75;61.44;99276.81;5054261;28;20045;-73
2021/04/28 04:15:30;;;;;;;12.02;8.57;;;;;;;3.77;61.14;99271.84;5072954;28;20052;-73
2021/04/28 04:17:57;;;;;;;11.32;8.50;;;;;;;3.77;61.45;99277.34;5072701;28;20049;-73
2021/04/28 04:20:24;;;;;;;15.30;8.65;;;;;;;3.78;61.33;99276.22;5072787;28;20108;-72
2021/04/28 04:22:50;;;;;;;12.15;7.35;;;;;;;3.80;62.75;99273.97;5073159;28;20410;-73
2021/04/28 04:25:17;;;;;;;8.90;7.30;;;;;;;3.86;62.88;99276.38;5071806;28;20052;-73
2021/04/28 04:27:44;;;;;;;10.13;7.10;;;;;;;3.97;62.43;99276.19;5072538;28;20060;-73
2021/04/28 04:30:11;;;;;;;10.85;7.93;;;;;;;4.04;61.97;99271.94;5075124;28;20053;-73
2021/04/28 04:32:39;;;;;;;12.13;7.22;;;;;;;4.12;60.63;99269.63;5077264;28;20056;-73
2021/04/28 04:35:10;;;;;;;12.45;8.57;;;;;;;4.14;60.44;99276.47;5077153;28;20057;-73
2021/04/28 04:37:37;;;;;;;9.02;7.70;;;;;;;4.19;60.32;99275.56;5077191;28;20405;-73
2021/04/28 04:40:05;;;;;;;12.55;8.45;;;;;;;4.18;59.74;99273.91;5058637;28;20057;-73
2021/04/28 04:42:31;;;;;;;16.20;8.70;;;;;;;4.17;60.28;99278.63;5056469;28;20059;-73
2021/04/28 04:44:58;;;;;;;11.45;8.73;;;;;;;4.20;60.42;99275.28;5056422;28;20076;-73
2021/04/28 04:47:25;;;;;;;11.48;8.68;;;;;;;4.20;60.06;99278.03;5056810;28;20057;-73
2021/04/28 04:49:53;;;;;;;9.88;8.57;;;;;;;4.22;60.10;99270.28;5056375;28;20049;-73
2021/04/28 04:52:20;;;;;;;10.35;7.85;;;;;;;4.21;60.07;99276.91;5056168;28;20452;-73
2021/04/28 04:54:47;;;;;;;9.18;8.15;;;;;;;4.25;59.69;99274.38;5057187;28;20057;-73
2021/04/28 04:57:14;;;;;;;12.68;8.95;;;;;;;4.22;60.11;99277.72;5055798;28;20045;-73
2021/04/28 04:59:41;;;;;;;11.20;8.48;;;;;;;4.24;59.89;99280.97;5055857;28;20056;-73
2021/04/28 05:02:08;;;;;;;9.93;8.48;;;;;;;4.28;59.49;99276.50;5066849;28;20477;-73
2021/04/28 05:04:34;;;;;;;9.93;8.88;;;;;;;4.27;59.39;99272.13;5075428;28;20056;-73
2021/04/28 05:07:05;;;;;;;10.93;8.57;;;;;;;4.32;59.39;99280.28;5076018;28;20052;-73
2021/04/28 05:09:32;;;;;;;13.07;9.40;;;;;;;4.37;60.16;99285.72;5061092;28;20053;-73
2021/04/28 05:12:01;;;;;;;13.52;8.35;;;;;;;4.42;59.96;99280.13;5055862;28;20442;-73
2021/04/28 05:14:28;;;;;;;10.68;8.07;;;;;;;4.48;59.51;99272.59;5055720;28;20057;-73
2021/04/28 05:16:55;;;;;;;12.02;8.18;;;;;;;4.60;59.24;99272.91;5056702;28;20063;-73
2021/04/28 05:19:22;;;;;;;12.65;8.20;;;;;;;4.71;59.16;99267.22;5059299;28;20056;-73
2021/04/28 05:21:49;;;;;;;13.48;8.63;;;;;;;4.77;59.43;99271.50;5074998;28;20055;-72
2021/04/28 05:24:16;;;;;;;10.35;8.27;;;;;;;4.83;59.18;99262.81;5067415;28;20045;-73
2021/04/28 05:26:43;;;;;;;13.55;8.60;;;;;;;4.87;59.13;99265.75;5055663;28;20084;-72
2021/04/28 05:29:10;;;;;;;17.40;10.68;;;;;;;4.98;58.74;99266.41;5063613;28;20420;-73
2021/04/28 05:31:36;;;;;;;12.38;8.57;;;;;;;5.01;58.74;99263.81;5073598;28;20490;-72
2021/04/28 05:34:04;;;;;;;11.80;8.98;;;;;;;5.08;58.23;99263.41;5073347;28;20516;-73
2021/04/28 05:36:30;;;;;;;12.07;8.70;;;;;;;5.15;58.40;99265.78;5075460;28;20064;-73
2021/04/28 05:38:59;;;;;;;12.55;8.52;;;;;;;5.20;57.47;99255.44;5067624;28;20049;-73
2021/04/28 05:41:27;;;;;;;12.73;9.23;;;;;;;5.37;57.98;99267.78;5054597;28;20509;-73
2021/04/28 05:43:54;;;;;;;12.25;8.48;;;;;;;5.52;57.44;99261.91;5056010;28;20064;-73
2021/04/28 05:46:21;;;;;;;11.95;9.13;;;;;;;5.62;57.14;99260.88;5055773;28;20053;-73
2021/04/28 05:48:48;;;;;;;13.35;9.05;;;;;;;5.72;56.86;99259.84;5055125;28;20052;-72
2021/04/28 05:51:15;;;;;;;13.32;9.20;;;;;;;5.79;56.36;99261.00;5055031;28;20527;-73
2021/04/28 05:53:42;;;;;;;12.48;9.27;;;;;;;5.87;56.52;99253.94;5065278;28;20041;-73
2021/04/28 05:56:09;;;;;;;11.15;7.78;;;;;;;6.02;55.51;99259.09;5058700;28;20071;-73
2021/04/28 05:58:36;;;;;;;10.50;8.20;;;;;;;6.19;55.19;99246.53;5055255;28;20401;-73
2021/04/28 06:01:03;;;;;;;10.88;8.60;;;;;;;6.35;54.34;99250.56;5072885;28;20063;-73
2021/04/28 06:03:30;;;;;;;13.60;7.93;;;;;;;6.47;54.23;99259.09;5074917;28;20389;-74
2021/04/28 06:05:57;;;;;;;9.00;7.78;;;;;;;6.60;54.24;99248.25;5071456;28;20057;-74
2021/04/28 06:08:24;;;;;;;11.52;8.45;;;;;;;6.71;53.70;99249.59;5074406;28;20060;-74
2021/04/28 06:10:51;;;;;;;9.05;8.13;;;;;;;6.77;54.25;99255.81;5055270;28;20052;-74
2021/04/28 06:13:17;;;;;;;13.45;9.55;;;;;;;6.90;54.87;99252.94;5057945;28;20055;-72
2021/04/28 06:15:45;;;;;;;11.50;9.23;;;;;;;6.98;55.15;99267.94;5069567;28;20045;-72
2021/04/28 06:18:12;;;;;;;12.55;9.52;;;;;;;7.08;55.82;99264.88;5067332;28;20044;-73
2021/04/28 06:20:39;;;;;;;13.18;9.93;;;;;;;7.18;55.58;99260.19;5054906;28;20060;-73
2021/04/28 06:23:06;;;;;;;16.92;11.98;;;;;;;7.29;55.16;99261.53;5054103;28;20068;-73
2021/04/28 06:25:32;;;;;;;11.75;9.20;;;;;;;7.41;55.08;99249.81;5074555;28;20049;-73
2021/04/28 06:27:59;;;;;;;11.18;9.70;;;;;;;7.59;55.42;99254.25;5074603;28;20045;-73
2021/04/28 06:30:26;;;;;;;12.77;10.38;;;;;;;7.75;54.86;99250.97;5073944;28;20489;-73
2021/04/28 06:32:54;;;;;;;12.65;9.95;;;;;;;7.88;54.00;99244.47;5074475;28;20401;-73
2021/04/28 06:35:21;;;;;;;9.85;8.82;;;;;;;8.03;53.71;99251.47;5074079;28;20068;-73
2021/04/28 06:37:47;;;;;;;15.15;10.73;;;;;;;8.17;53.40;99245.72;5074633;28;20500;-73
2021/04/28 06:40:15;;;;;;;12.90;9.52;;;;;;;8.28;53.56;99241.50;5072375;28;20079;-72
2021/04/28 06:42:42;;;;;;;13.10;9.43;;;;;;;8.42;52.69;99233.81;5074091;28;20111;-71
2021/04/28 06:45:09;;;;;;;13.35;8.73;;;;;;;8.58;51.21;99234.09;5074767;28;20473;-71
2021/04/28 06:47:38;;;;;;;12.23;8.07;;;;;;;8.74;50.46;99232.41;5073699;28;20508;-71
2021/04/28 06:50:09;;;;;;;10.88;7.88;;;;;;;8.93;49.09;99236.75;5074213;28;20389;-71
2021/04/28 06:52:36;;;;;;;10.85;8.35;;;;;;;9.11;49.34;99231.91;5073491;28;20045;-71
2021/04/28 06:55:04;;;;;;;10.27;8.02;;;;;;;9.25;50.11;99224.13;5063708;28;20056;-74
2021/04/28 06:57:31;;;;;;;11.45;9.18;;;;;;;9.40;49.99;99233.03;5056859;28;20060;-75
2021/04/28 07:00:00;;;;;;;12.63;9.75;;;;;;;9.56;48.32;99234.06;5066925;28;20049;-72
2021/04/28 07:02:27;;;;;;;11.65;9.23;;;;;;;9.72;49.34;99237.88;5071371;28;20063;-72
2021/04/28 07:04:53;;;;;;;16.73;10.93;;;;;;;9.90;49.36;99230.19;5072071;28;20053;-72
2021/04/28 07:07:21;;;;;;;13.98;11.18;;;;;;;10.05;49.46;99227.94;5071730;28;20056;-72
2021/04/28 07:09:48;;;;;;;12.32;9.73;;;;;;;10.21;48.17;99231.72;5072488;28;20056;-72
2021/04/28 07:12:15;;;;;;;13.32;9.48;;;;;;;10.58;46.87;99229.06;5071919;28;20056;-72
2021/04/28 07:14:41;;;;;;;12.93;8.38;;;;;;;11.47;44.96;99219.22;5058114;28;20419;-72
2021/04/28 07:17:09;;;;;;;13.60;8.82;;;;;;;12.49;42.07;99214.19;5067550;28;20489;-74
2021/04/28 07:19:36;;;;;;;12.43;8.88;;;;;;;13.54;39.70;99218.41;5072501;28;20052;-73
2021/04/28 07:22:03;;;;;;;11.18;7.82;;;;;;;14.73;36.25;99216.00;5072476;28;20048;-74
2021/04/28 07:24:30;;;;;;;12.23;8.23;;;;;;;15.88;34.51;99219.81;5062858;28;20053;-73
2021/04/28 07:26:57;;;;;;;13.48;8.30;;;;;;;16.80;32.25;99213.63;5060111;28;20488;-72
2021/04/28 07:29:24;;;;;;;16.48;8.48;;;;;;;17.74;30.72;99210.28;5072122;28;20056;-71
2021/04/28 07:31:51;;;;;;;8.95;7.60;;;;;;;18.63;30.07;99207.03;5071962;28;20052;-73
2021/04/28 07:34:18;;;;;;;10.57;8.30;;;;;;;19.48;28.47;99210.28;5072458;28;20060;-73
2021/04/28 07:36:46;;;;;;;10.05;7.78;;;;;;;20.33;27.17;99207.66;5071284;28;20401;-71
2021/04/28 07:39:16;;;;;;;10.82;7.60;;;;;;;21.18;26.72;99205.47;5062783;28;20052;-72
2021/04/28 07:41:44;;;;;;;10.93;7.07;;;;;;;21.98;25.02;99194.97;5054572;28;20063;-72
2021/04/28 07:44:16;;;;;;;7.63;6.10;;;;;;;22.40;23.66;99204.97;5071568;28;20421;-71
2021/04/28 07:46:43;;;;;;;9.13;6.63;;;;;;;22.92;21.94;99198.13;5071076;28;20056;-70
2021/04/28 07:49:10;;;;;;;12.27;7.10;;;;;;;23.93;20.99;99197.22;5071594;28;20421;-72
2021/04/28 07:51:37;;;;;;;9.35;6.30;;;;;;;24.85;19.44;99204.19;5071288;28;20162;-71
2021/04/28 07:54:05;;;;;;;8.20;6.20;;;;;;;25.63;19.29;99192.84;5071592;28;20060;-72
2021/04/28 07:56:32;;;;;;;7.70;6.90;;;;;;;26.47;18.10;99192.91;5071138;28;20484;-71
2021/04/28 07:59:00;;;;;;;11.40;6.35;;;;;;;27.32;17.34;99177.16;5071336;28;20059;-71
2021/04/28 08:01:27;;;;;;;7.45;6.22;;;;;;;28.08;16.70;99180.22;5061320;28;20048;-72
2021/04/28 08:03:54;;;;;;;8.57;6.22;;;;;;;28.66;16.58;99176.75;5071672;28;20465;-72
2021/04/28 08:06:20;;;;;;;7.03;6.32;;;;;;;29.66;14.74;99173.84;5074467;28;21548;-74
2021/04/28 08:08:48;;;;;;;7.03;5.82;;;;;;;29.83;15.29;99177.22;5075876;28;20481;-73
2021/04/28 08:11:15;;;;;;;9.52;6.10;;;;;;;30.53;14.75;99172.34;5074747;28;20547;-73
2021/04/28 08:13:42;;;;;;;8.80;6.20;;;;;;;31.28;13.45;99164.19;5074670;28;20064;-73
2021/04/28 08:16:10;;;;;;;6.93;5.70;;;;;;;31.63;12.69;99166.53;5075202;28;20067;-72
2021/04/28 08:18:38;;;;;;;8.40;5.95;;;;;;;31.70;13.05;99169.00;5075919;28;20496;-72
2021/04/28 08:21:04;;;;;;;8.70;6.25;;;;;;;31.85;13.57;99163.28;5074643;28;20056;-73
2021/04/28 08:23:31;;;;;;;8.73;6.28;;;;;;;32.63;12.44;99158.19;5073676;28;20496;-72
2021/04/28 08:26:01;;;;;;;6.70;5.93;;;;;;;33.03;12.85;99156.69;5055752;28;20470;-73
2021/04/28 08:28:28;;;;;;;6.97;5.90;;;;;;;33.95;11.07;99161.09;5057807;28;20049;-72
2021/04/28 08:30:55;;;;;;;8.23;5.80;;;;;;;34.55;10.91;99155.66;5072926;28;20052;-72
2021/04/28 08:33:23;;;;;;;8.60;5.88;;;;;;;35.12;10.15;99151.09;5065311;28;20076;-73
2021/04/28 08:35:50;;;;;;;8.38;5.82;;;;;;;35.92;9.14;99147.25;5058912;28;20573;-72
2021/04/28 08:38:17;;;;;;;6.75;5.57;;;;;;;36.71;9.84;99147.41;5072504;28;20060;-73
2021/04/28 08:40:44;;;;;;;6.03;5.30;;;;;;;37.33;8.40;99143.59;5054840;28;20524;-72
2021/04/28 08:43:10;;;;;;;6.07;5.47;;;;;;;38.08;7.50;99149.34;5074939;28;20528;-73
2021/04/28 08:45:37;;;;;;;7.40;5.40;;;;;;;38.68;7.11;99139.94;5059457;28;20053;-73
2021/04/28 08:48:05;;;;;;;6.95;5.32;;;;;;;39.48;6.49;99137.81;5071372;28;20045;-73
2021/04/28 08:50:35;;;;;;;6.13;5.33;;;;;;;40.15;5.80;99141.13;5075129;28;20060;-72
2021/04/28 08:53:02;;;;;;;5.47;4.35;;;;;;;41.31;4.57;99138.13;5074687;28;20060;-72
2021/04/28 08:55:29;;;;;;;5.63;4.83;;;;;;;41.83;3.75;99126.91;5074628;28;20957;-72
2021/04/28 08:57:58;;;;;;;5.45;4.95;;;;;;;42.88;3.84;99129.97;5067043;28;20048;-73
2021/04/28 09:00:25;;;;;;;5.30;4.80;;;;;;;42.84;3.50;99120.78;5054907;28;20053;-73
2021/04/28 09:02:54;;;;;;;6.22;4.93;;;;;;;43.66;3.12;99132.06;5069825;28;20053;-73
2021/04/28 09:05:21;;;;;;;6.97;4.82;;;;;;;44.07;3.34;99125.22;5075234;28;20453;-74
2021/04/28 09:07:50;;;;;;;7.10;4.78;;;;;;;44.52;3.48;99120.00;5074384;28;20064;-73
2021/04/28 09:10:17;;;;;;;;;;;;;;;44.98;3.06;99117.09;5075515;28;20052;-74
2021/04/28 09:12:52;;;;;;;5.95;5.25;;;;;;;45.66;3.32;99124.22;5072983;28;19924;-73
2021/04/28 09:15:39;;;;;;;7.28;5.40;;;;;;;45.72;2.98;99121.06;5074553;28;20378;-73
2021/04/28 09:18:07;;;;;;;6.13;5.47;;;;;;;46.18;2.85;99112.81;5073720;28;20056;-73
2021/04/28 09:20:36;;;;;;;6.70;5.47;;;;;;;45.80;2.83;99115.91;5074111;28;20056;-73
2021/04/28 09:23:11;;;;;;;8.60;5.50;;;;;;;46.40;2.68;99115.44;5072901;28;20049;-73
2021/04/28 09:25:44;;;;;;;6.15;5.55;;;;;;;47.01;3.09;99106.06;5070168;28;20056;-73
2021/04/28 09:28:22;;;;;;;6.40;5.80;;;;;;;47.54;2.52;99103.97;5073687;28;20052;-73
2021/04/28 09:30:49;;;;;;;6.68;5.90;;;;;;;47.55;2.87;99100.41;5054392;28;20075;-73
2021/04/28 09:33:17;;;;;;;7.53;6.15;;;;;;;48.14;2.40;99100.81;5072172;28;20060;-73
2021/04/28 09:35:43;;;;;;;6.85;5.88;;;;;;;47.92;2.13;99106.41;5073935;28;20052;-73
2021/04/28 09:38:12;;;;;;;7.13;6.43;;;;;;;48.12;2.18;99097.69;5073396;28;20163;-74
2021/04/28 09:40:42;;;;;;;7.70;6.35;;;;;;;48.00;2.45;99096.69;5073837;28;20056;-73
2021/04/28 09:43:09;;;;;;;7.07;6.38;;;;;;;47.93;2.34;99102.09;5073102;28;20056;-73
2021/04/28 09:45:43;;;;;;;6.82;5.93;;;;;;;48.41;2.17;99094.09;5058213;28;20053;-73
2021/04/28 09:48:11;;;;;;;6.95;6.13;;;;;;;47.95;2.77;99090.44;5071620;28;20413;-72
2021/04/28 09:50:38;;;;;;;;;;;;;;;47.16;2.83;99070.53;5073911;28;20059;-72
2021/04/28 09:53:05;;;;;;;6.88;6.30;;;;;;;47.30;2.73;99073.16;5072830;28;19931;-72
2021/04/28 09:55:45;;;;;;;8.00;6.60;;;;;;;47.00;3.29;99080.13;5073437;28;20060;-73
2021/04/28 09:58:13;;;;;;;8.48;6.78;;;;;;;46.88;3.34;99074.00;5073474;28;20057;-73
2021/04/28 10:00:41;;;;;;;7.13;6.43;;;;;;;46.97;2.68;99079.19;5073406;28;20056;-72
2021/04/28 10:03:09;;;;;;;7.68;6.50;;;;;;;46.70;3.40;99070.19;5072836;28;20060;-73
2021/04/28 10:05:37;;;;;;;8.13;7.00;;;;;;;46.82;3.19;99071.28;5069180;28;20056;-72
2021/04/28 10:08:08;;;;;;;;;;;;;;;47.00;3.00;99063.25;5069866;28;21132;-72
2021/04/28 10:10:36;;;;;;;7.78;6.80;;;;;;;47.70;2.51;99075.81;5073468;28;19920;-72
2021/04/28 10:13:04;;;;;;;7.53;6.70;;;;;;;47.52;2.58;99072.09;5072743;28;20052;-73
2021/04/28 10:15:31;;;;;;;7.15;6.45;;;;;;;47.55;2.68;99067.19;5073009;28;20063;-72
2021/04/28 10:18:02;;;;;;;9.48;7.10;;;;;;;48.06;2.96;99058.81;5072482;28;20049;-72
2021/04/28 10:20:31;;;;;;;8.75;6.78;;;;;;;47.85;2.41;99057.09;5065394;28;20063;-72
2021/04/28 10:23:03;;;;;;;7.88;7.07;;;;;;;48.61;2.66;99054.38;5068731;28;20400;-72
2021/04/28 10:25:31;;;;;;;7.47;6.88;;;;;;;48.72;2.49;99050.84;5067006;28;20048;-77
2021/04/28 10:28:00;;;;;;;6.72;6.13;;;;;;;49.19;2.60;99050.00;5064685;28;20045;-76
2021/04/28 10:30:28;;;;;;;6.95;6.32;;;;;;;49.71;1.72;99040.63;5073496;28;20053;-74
2021/04/28 10:32:57;;;;;;;7.53;6.68;;;;;;;49.54;2.16;99042.38;5071545;28;20053;-74
2021/04/28 10:35:28;;;;;;;7.55;6.90;;;;;;;49.57;2.15;99041.09;5073081;28;20063;-75
2021/04/28 10:37:57;;;;;;;8.10;6.80;;;;;;;49.82;2.43;99040.00;5070835;28;20052;-74
2021/04/28 10:40:26;;;;;;;7.97;7.15;;;;;;;49.56;1.98;99030.69;5069665;28;20064;-75
2021/04/28 10:42:53;;;;;;;7.22;6.47;;;;;;;49.40;2.06;99031.66;5072075;28;20048;-74
2021/04/28 10:45:37;;;;;;;7.65;6.70;;;;;;;49.16;2.41;99038.00;5072292;28;20053;-75
2021/04/28 10:48:07;;;;;;;8.20;7.40;;;;;;;49.37;1.96;99027.72;5071856;28;20064;-74
2021/04/28 10:50:38;;;;;;;8.38;7.25;;;;;;;49.23;1.99;99023.66;5072490;28;20052;-75
2021/04/28 10:53:08;;;;;;;6.85;6.13;;;;;;;49.50;2.26;99030.22;5071942;28;20110;-75
2021/04/28 10:55:50;;;;;;;6.70;6.00;;;;;;;50.15;1.09;99024.59;5072443;28;20049;-74
2021/04/28 10:58:47;;;;;;;6.88;6.20;;;;;;;50.00;1.50;99022.00;5072367;28;20059;-74
2021/04/28 11:01:15;;;;;;;;;;;;;;;50.20;1.44;99011.66;5058390;28;20052;-75
2021/04/28 11:03:45;;;;;;;6.53;5.93;;;;;;;50.50;1.54;99015.25;5072448;28;20369;-75
2021/04/28 11:06:31;;;;;;;7.00;6.28;;;;;;;50.56;1.56;99012.72;5070404;28;20405;-75
2021/04/28 11:09:19;;;;;;;6.53;5.90;;;;;;;50.72;1.44;99004.97;5062610;28;21823;-75
2021/04/28 11:11:52;;;;;;;7.38;6.68;;;;;;;51.11;0.80;99010.63;5057123;28;20052;-75
2021/04/28 11:14:36;;;;;;;6.35;5.53;;;;;;;50.87;0.59;99003.81;5064596;28;20060;-74
2021/04/28 11:17:27;;;;;;;7.15;6.40;;;;;;;50.68;1.09;99004.69;5063660;28;20052;-74
2021/04/28 11:19:55;;;;;;;6.53;5.93;;;;;;;50.53;1.51;98999.19;5072955;28;20041;-73
2021/04/28 11:22:26;;;;;;;7.40;6.60;;;;;;;50.88;1.24;99004.56;5071570;28;20056;-73
2021/04/28 11:25:02;;;;;;;7.72;6.93;;;;;;;50.69;1.03;99000.31;5071930;28;20057;-74
2021/04/28 11:27:43;;;;;;;6.75;6.22;;;;;;;50.04;1.37;98987.53;5071701;28;20485;-74
2021/04/28 11:30:34;;;;;;;5.72;5.20;;;;;;;49.35;1.53;98986.16;5072314;28;20494;-73
2021/04/28 11:33:31;;;;;;;6.65;6.13;;;;;;;49.63;1.97;98983.78;5070187;28;20059;-74
2021/04/28 11:36:17;;;;;;;7.32;6.60;;;;;;;50.08;1.16;98978.19;5068440;28;20049;-74
2021/04/28 11:38:51;;;;;;;7.63;6.82;;;;;;;50.17;1.42;98972.22;5066605;28;20052;-74
2021/04/28 11:41:27;;;;;;;8.15;6.40;;;;;;;50.45;1.15;98960.09;5071424;28;20489;-74
2021/04/28 11:43:57;;;;;;;8.43;6.28;;;;;;;50.70;1.08;98966.28;5071825;28;20052;-74
2021/04/28 11:46:25;;;;;;;8.23;7.43;;;;;;;49.61;1.76;98957.75;5071447;28;20390;-74